SAS62N ENAT-ENTC

Flight info

Callsign SAS62N
Flight time 0h 26m
Altitude 20000
Route NATED DCT KIIKA
Aircraft A319/M-SDE3FGHIRWY/LB1

Departure

Time 2026-05-04 19:38
Airport Alta Airport (ENAT)

Arrival

Time 2026-05-04 20:05
Airport Tromsø Airport (ENTC)
Time Latitude Longitude Altitude Speed Heading
2026-05-04 19:05 69.97836 23.34710 63 ft 0 kts 211°
2026-05-04 19:29 69.97849 23.34733 33 ft 4 kts 211°
2026-05-04 19:30 69.97872 23.34774 35 ft 4 kts 211°
2026-05-04 19:30 69.97892 23.34809 35 ft 1 kts 211°
2026-05-04 19:30 69.97893 23.34810 35 ft 0 kts 211°
2026-05-04 19:33 69.97890 23.34805 35 ft 2 kts 213°
2026-05-04 19:34 69.97894 23.34777 32 ft 3 kts 294°
2026-05-04 19:34 69.97922 23.34716 35 ft 7 kts 323°
2026-05-04 19:34 69.97958 23.34588 35 ft 10 kts 298°
2026-05-04 19:34 69.97998 23.34393 34 ft 13 kts 308°
2026-05-04 19:35 69.98068 23.34196 35 ft 15 kts 319°
2026-05-04 19:35 69.98137 23.34023 35 ft 5 kts 319°
2026-05-04 19:35 69.98144 23.34006 35 ft 0 kts 319°
2026-05-04 19:36 69.98148 23.33994 35 ft 2 kts 319°
2026-05-04 19:36 69.98167 23.33945 35 ft 5 kts 317°
2026-05-04 19:37 69.98201 23.33863 35 ft 8 kts 331°
2026-05-04 19:37 69.98254 23.33922 36 ft 9 kts 38°
2026-05-04 19:37 69.98259 23.34032 36 ft 1 kts 121°
2026-05-04 19:37 69.98257 23.34041 36 ft 8 kts 121°
2026-05-04 19:38 69.98101 23.34785 33 ft 77 kts 121°
2026-05-04 19:38 69.97715 23.36652 34 ft 136 kts 121°
2026-05-04 19:38 69.97173 23.39236 460 ft 149 kts 118°
2026-05-04 19:38 69.96580 23.41664 1206 ft 147 kts 136°
2026-05-04 19:39 69.95689 23.43052 1782 ft 147 kts 166°
2026-05-04 19:39 69.94678 23.42852 2429 ft 148 kts 201°
2026-05-04 19:39 69.93907 23.40835 2996 ft 160 kts 244°
2026-05-04 19:39 69.93723 23.37536 3364 ft 178 kts 268°
2026-05-04 19:40 69.93658 23.33876 3895 ft 181 kts 261°
2026-05-04 19:40 69.93423 23.30131 4299 ft 200 kts 255°
2026-05-04 19:40 69.93090 23.26025 4694 ft 223 kts 254°
2026-05-04 19:40 69.92706 23.21378 5207 ft 248 kts 254°
2026-05-04 19:41 69.92296 23.16286 5875 ft 266 kts 254°
2026-05-04 19:41 69.91884 23.10974 6800 ft 271 kts 255°
2026-05-04 19:41 69.91477 23.05590 7807 ft 274 kts 256°
2026-05-04 19:41 69.91071 23.00122 8815 ft 278 kts 256°
2026-05-04 19:42 69.90665 22.94588 9751 ft 283 kts 256°
2026-05-04 19:42 69.90236 22.88767 10116 ft 306 kts 256°
2026-05-04 19:42 69.89771 22.82503 10439 ft 328 kts 257°
2026-05-04 19:42 69.89279 22.75912 11109 ft 337 kts 256°
2026-05-04 19:43 69.88779 22.69220 11891 ft 341 kts 256°
2026-05-04 19:43 69.88268 22.62447 12690 ft 345 kts 256°
2026-05-04 19:43 69.87751 22.55618 13475 ft 349 kts 256°
2026-05-04 19:43 69.87223 22.48684 14195 ft 352 kts 256°
2026-05-04 19:44 69.86691 22.41723 14954 ft 355 kts 256°
2026-05-04 19:44 69.86153 22.34731 15716 ft 357 kts 256°
2026-05-04 19:44 69.85607 22.27684 16442 ft 360 kts 255°
2026-05-04 19:44 69.85053 22.20553 17159 ft 364 kts 255°
2026-05-04 19:45 69.84395 22.13441 17853 ft 366 kts 248°
2026-05-04 19:45 69.83510 22.06503 18489 ft 369 kts 247°
2026-05-04 19:45 69.82593 21.99515 19137 ft 372 kts 247°
2026-05-04 19:45 69.81657 21.92501 19479 ft 373 kts 247°
2026-05-04 19:46 69.80707 21.85446 19560 ft 381 kts 247°
2026-05-04 19:46 69.79733 21.78250 19565 ft 385 kts 247°
2026-05-04 19:46 69.78756 21.71017 19565 ft 386 kts 247°
2026-05-04 19:46 69.77781 21.63785 19563 ft 387 kts 247°
2026-05-04 19:47 69.76805 21.56529 19561 ft 387 kts 247°
2026-05-04 19:47 69.75827 21.49291 19563 ft 387 kts 247°
2026-05-04 19:47 69.74845 21.42068 19561 ft 387 kts 246°
2026-05-04 19:47 69.73873 21.34953 19562 ft 387 kts 246°
2026-05-04 19:48 69.72882 21.27717 19562 ft 387 kts 246°
2026-05-04 19:48 69.71889 21.20509 19551 ft 386 kts 246°
2026-05-04 19:48 69.70910 21.13415 19297 ft 377 kts 246°
2026-05-04 19:48 69.69939 21.06417 19039 ft 377 kts 246°
2026-05-04 19:49 69.68958 20.99403 18776 ft 377 kts 246°
2026-05-04 19:49 69.67977 20.92425 18539 ft 376 kts 246°
2026-05-04 19:49 69.66994 20.85454 18278 ft 375 kts 246°
2026-05-04 19:49 69.66013 20.78508 18021 ft 375 kts 246°
2026-05-04 19:50 69.65035 20.71582 17766 ft 373 kts 246°
2026-05-04 19:50 69.64058 20.64696 17475 ft 372 kts 246°
2026-05-04 19:50 69.63075 20.57820 17176 ft 370 kts 246°
2026-05-04 19:50 69.62096 20.51013 16885 ft 369 kts 246°
2026-05-04 19:51 69.61120 20.44235 16613 ft 367 kts 246°
2026-05-04 19:51 69.60150 20.37500 16335 ft 365 kts 246°
2026-05-04 19:51 69.59179 20.30785 16062 ft 364 kts 246°
2026-05-04 19:51 69.58213 20.24137 15697 ft 359 kts 246°
2026-05-04 19:52 69.57259 20.17586 15176 ft 354 kts 246°
2026-05-04 19:52 69.56310 20.11105 14648 ft 350 kts 246°
2026-05-04 19:52 69.55373 20.04724 14124 ft 346 kts 246°
2026-05-04 19:52 69.54451 19.98456 13610 ft 342 kts 246°
2026-05-04 19:53 69.53531 19.92209 13070 ft 338 kts 246°
2026-05-04 19:53 69.52628 19.86103 12815 ft 327 kts 245°
2026-05-04 19:53 69.51755 19.80222 12626 ft 315 kts 245°
2026-05-04 19:53 69.50915 19.74580 12485 ft 303 kts 245°
2026-05-04 19:54 69.50106 19.69153 12308 ft 293 kts 245°
2026-05-04 19:54 69.49321 19.63913 11977 ft 289 kts 245°
2026-05-04 19:54 69.48531 19.58661 11621 ft 288 kts 245°
2026-05-04 19:54 69.47740 19.53430 11252 ft 287 kts 245°
2026-05-04 19:55 69.46950 19.48217 10902 ft 286 kts 245°
2026-05-04 19:55 69.46161 19.43023 10549 ft 285 kts 245°
2026-05-04 19:55 69.45373 19.37858 10313 ft 285 kts 245°
2026-05-04 19:55 69.44580 19.32673 10159 ft 285 kts 245°
2026-05-04 19:56 69.43795 19.27540 10042 ft 279 kts 245°
2026-05-04 19:56 69.43032 19.22580 9775 ft 269 kts 245°
2026-05-04 19:56 69.42290 19.17781 9418 ft 262 kts 245°
2026-05-04 19:56 69.41577 19.13150 9195 ft 249 kts 245°
2026-05-04 19:57 69.40883 19.08654 8686 ft 249 kts 245°
2026-05-04 19:57 69.40336 19.04013 8179 ft 246 kts 259°
2026-05-04 19:57 69.40231 18.99270 7878 ft 236 kts 273°
2026-05-04 19:57 69.40507 18.94741 7484 ft 231 kts 283°
2026-05-04 19:58 69.40868 18.90337 7064 ft 227 kts 282°
2026-05-04 19:58 69.41231 18.86030 6731 ft 222 kts 288°
2026-05-04 19:58 69.41925 18.82253 6673 ft 211 kts 308°
2026-05-04 19:58 69.42951 18.79464 6603 ft 202 kts 325°
2026-05-04 19:59 69.44180 18.77743 6345 ft 198 kts 343°
2026-05-04 19:59 69.45531 18.77166 6068 ft 196 kts
2026-05-04 19:59 69.46885 18.77744 5738 ft 194 kts 14°
2026-05-04 19:59 69.48196 18.78602 5374 ft 193 kts 14°
2026-05-04 20:00 69.49502 18.79456 5015 ft 192 kts 14°
2026-05-04 20:00 69.50808 18.80311 4653 ft 193 kts 14°
2026-05-04 20:00 69.52111 18.81165 4298 ft 191 kts 14°
2026-05-04 20:00 69.53388 18.82003 3932 ft 190 kts 14°
2026-05-04 20:01 69.54674 18.82848 3575 ft 187 kts 14°
2026-05-04 20:01 69.55916 18.83665 3225 ft 180 kts 14°
2026-05-04 20:01 69.57115 18.84454 2901 ft 172 kts 14°
2026-05-04 20:01 69.58231 18.85153 2658 ft 153 kts 13°
2026-05-04 20:02 69.59222 18.85745 2397 ft 140 kts 13°
2026-05-04 20:02 69.60149 18.86359 2085 ft 133 kts 15°
2026-05-04 20:02 69.61037 18.87007 1826 ft 131 kts 15°
2026-05-04 20:02 69.61917 18.87643 1576 ft 129 kts 13°
2026-05-04 20:03 69.62793 18.88187 1335 ft 128 kts 13°
2026-05-04 20:03 69.63659 18.88736 1065 ft 126 kts 13°
2026-05-04 20:03 69.64223 18.89103 896 ft 125 kts 14°
2026-05-04 20:03 69.65061 18.89716 657 ft 124 kts 14°
2026-05-04 20:04 69.65899 18.90267 426 ft 123 kts 14°
2026-05-04 20:04 69.66729 18.90824 235 ft 122 kts 15°
2026-05-04 20:04 69.67552 18.91371 43 ft 118 kts 14°
2026-05-04 20:04 69.68212 18.91809 31 ft 73 kts 13°
2026-05-04 20:05 69.68556 18.92037 28 ft 37 kts 11°
2026-05-04 20:05 69.68719 18.92136 22 ft 18 kts 11°
2026-05-04 20:05 69.68761 18.91989 20 ft 10 kts 282°
2026-05-04 20:05 69.68777 18.91769 22 ft 10 kts 270°
2026-05-04 20:06 69.68710 18.91677 20 ft 13 kts 191°
2026-05-04 20:06 69.68618 18.91617 22 ft 14 kts 193°
2026-05-04 20:06 69.68528 18.91555 26 ft 13 kts 194°
2026-05-04 20:06 69.68433 18.91496 26 ft 15 kts 184°
2026-05-04 20:07 69.68321 18.91497 27 ft 17 kts 187°
2026-05-04 20:07 69.68206 18.91418 31 ft 17 kts 193°
2026-05-04 20:07 69.68105 18.91348 35 ft 12 kts 193°
2026-05-04 20:07 69.68042 18.91305 35 ft 3 kts 194°
2026-05-04 20:08 69.68013 18.91284 35 ft 6 kts 194°
2026-05-04 20:08 69.67991 18.91192 35 ft 7 kts 281°
2026-05-04 20:08 69.68008 18.91036 35 ft 7 kts 284°
2026-05-04 20:08 69.68014 18.90965 33 ft 2 kts 283°
2026-05-04 20:09 69.68016 18.90942 34 ft 1 kts 283°
2026-05-04 20:09 69.68016 18.90941 34 ft 0 kts 283°